Blairsville, Indiana
Current Conditions -  °F | °C
As of 11:54 AM on Thursday 23 Oct 2014 (Local Time) from KEVV Reporting Station
Clear Clear  
Wind Chill: 57°   Ceiling: Unl
Heat Index: 57°   Visibility: 10mi
Dew Point: 42°   Wind: 3mph
Humidity: 57%   Direction: NA
Pressure: 30.24"   Gusts: NA
Location:  38.0787°N, 87.7717°W
Report Text: KEVV 231654Z VRB03KT 10SM CLR 14/06 A3024 RMK AO2 SLP241 T01390056 $
Loading
Personal Weather Stations






























Interactive Weather Map
Tropical Storm Tracking
New forecast layout! Learn more

10-Day Weather Forecast

Advertisements
Track Severe Weather on mobile